createdAt,value
2023-05-23T00:00:46.073Z,15.59
2023-05-23T00:01:45.996Z,15.57
2023-05-23T00:02:46.007Z,15.54
2023-05-23T00:03:46.007Z,15.55
2023-05-23T00:04:45.921Z,15.72
2023-05-23T00:05:45.925Z,15.59
2023-05-23T00:06:45.900Z,15.67
2023-05-23T00:07:45.909Z,15.65
2023-05-23T00:08:45.906Z,15.61
2023-05-23T00:09:45.878Z,15.65
2023-05-23T00:10:45.877Z,15.70
2023-05-23T00:11:46.018Z,15.62
2023-05-23T00:12:45.851Z,15.67
2023-05-23T00:13:45.846Z,15.65
2023-05-23T00:14:45.876Z,15.62
2023-05-23T00:15:45.859Z,15.64
2023-05-23T00:16:48.699Z,15.62
2023-05-23T00:17:45.825Z,15.57
2023-05-23T00:18:46.044Z,15.62
2023-05-23T00:19:45.832Z,15.67
2023-05-23T00:21:36.302Z,15.51
2023-05-23T00:22:36.263Z,15.58
2023-05-23T00:23:36.284Z,15.49
2023-05-23T00:24:36.253Z,15.47
2023-05-23T00:25:36.247Z,15.49
2023-05-23T00:26:37.175Z,15.46
2023-05-23T00:27:36.242Z,15.46
2023-05-23T00:28:36.233Z,15.42
2023-05-23T00:29:36.228Z,15.43
2023-05-23T00:30:36.203Z,15.39
2023-05-23T00:31:36.282Z,15.36
2023-05-23T00:32:36.327Z,15.31
2023-05-23T00:33:36.181Z,15.35
2023-05-23T00:34:36.169Z,15.35
2023-05-23T00:35:36.173Z,15.27
2023-05-23T00:36:37.252Z,15.31
2023-05-23T00:37:37.249Z,15.29
2023-05-23T00:38:37.247Z,15.27
2023-05-23T00:39:37.263Z,15.35
2023-05-23T00:40:37.219Z,15.19
2023-05-23T00:41:37.227Z,15.22
2023-05-23T00:42:37.226Z,15.14
2023-05-23T00:43:37.192Z,15.17
2023-05-23T00:44:37.182Z,15.25
2023-05-23T00:45:37.194Z,15.11
2023-05-23T00:46:37.258Z,15.14
2023-05-23T00:47:37.188Z,15.21
2023-05-23T00:48:37.275Z,15.19
2023-05-23T00:49:37.150Z,15.18
2023-05-23T00:50:37.138Z,15.14
2023-05-23T00:51:37.123Z,15.19
2023-05-23T00:52:37.116Z,15.18
2023-05-23T00:53:37.126Z,15.17
2023-05-23T00:54:37.096Z,15.17
2023-05-23T00:55:37.134Z,15.17
2023-05-23T00:56:37.089Z,15.25
2023-05-23T00:57:37.094Z,15.18
2023-05-23T00:58:37.073Z,15.21
2023-05-23T00:59:37.086Z,15.18
2023-05-23T01:00:37.066Z,15.19
2023-05-23T01:01:37.115Z,15.15
2023-05-23T01:02:37.128Z,15.17
2023-05-23T01:03:37.076Z,15.17
2023-05-23T01:04:37.170Z,15.04
2023-05-23T01:05:37.026Z,15.15
2023-05-23T01:06:37.025Z,15.10
2023-05-23T01:07:37.006Z,15.07
2023-05-23T01:08:37.013Z,15.07
2023-05-23T01:09:37.011Z,15.10
2023-05-23T01:10:36.976Z,15.00
2023-05-23T01:11:37.720Z,15.03
2023-05-23T01:12:36.994Z,15.06
2023-05-23T01:13:36.952Z,15.00
2023-05-23T01:14:36.957Z,15.11
2023-05-23T01:15:36.969Z,14.99
2023-05-23T01:16:36.950Z,15.00
2023-05-23T01:17:37.020Z,14.99
2023-05-23T01:18:36.915Z,15.06
2023-05-23T01:19:36.910Z,15.03
2023-05-23T01:20:36.990Z,14.97
2023-05-23T01:21:36.990Z,14.99
2023-05-23T01:22:36.950Z,14.96
2023-05-23T01:23:36.912Z,14.88
2023-05-23T01:24:36.861Z,14.82
2023-05-23T01:25:36.853Z,14.81
2023-05-23T01:26:36.849Z,14.73
2023-05-23T01:27:36.844Z,14.82
2023-05-23T01:28:36.846Z,14.73
2023-05-23T01:29:36.853Z,14.79
2023-05-23T01:30:36.840Z,14.77
2023-05-23T01:31:36.883Z,14.70
2023-05-23T01:32:36.850Z,14.82
2023-05-23T01:33:36.798Z,14.78
2023-05-23T01:34:36.798Z,14.81
2023-05-23T01:35:36.783Z,14.85
2023-05-23T01:36:36.877Z,14.89
2023-05-23T01:37:36.781Z,15.02
2023-05-23T01:38:36.805Z,14.94
2023-05-23T01:39:36.765Z,15.00
2023-05-23T01:40:36.738Z,15.06
2023-05-23T01:41:36.740Z,15.07
2023-05-23T01:42:36.743Z,15.07
2023-05-23T01:43:36.721Z,15.10
2023-05-23T01:44:36.708Z,15.17
2023-05-23T01:45:36.753Z,15.14
2023-05-23T01:46:36.687Z,15.11
2023-05-23T01:47:36.739Z,15.22
2023-05-23T01:48:36.685Z,15.27
2023-05-23T01:49:36.668Z,15.31
2023-05-23T01:50:36.674Z,15.31
2023-05-23T01:51:36.661Z,15.35
2023-05-23T01:52:36.752Z,15.36
2023-05-23T01:53:36.648Z,15.44
2023-05-23T01:54:36.628Z,15.46
2023-05-23T01:55:36.676Z,15.42
2023-05-23T01:56:36.640Z,15.46
2023-05-23T01:57:36.618Z,15.43
2023-05-23T01:58:36.602Z,15.46
2023-05-23T01:59:36.592Z,15.51
2023-05-23T02:00:36.589Z,15.52
2023-05-23T02:01:36.639Z,15.52
2023-05-23T02:02:36.626Z,15.51
2023-05-23T02:03:36.624Z,15.51
2023-05-23T02:04:36.552Z,15.49
2023-05-23T02:05:36.534Z,15.55
2023-05-23T02:06:37.177Z,15.65
2023-05-23T02:07:36.529Z,15.65
2023-05-23T02:08:36.650Z,15.62
2023-05-23T02:09:36.538Z,15.68
2023-05-23T02:10:36.510Z,15.62
2023-05-23T02:11:36.499Z,15.67
2023-05-23T02:12:36.514Z,15.64
2023-05-23T02:13:36.484Z,15.67
2023-05-23T02:14:36.488Z,15.73
2023-05-23T02:15:36.466Z,15.68
2023-05-23T02:16:36.663Z,15.76
2023-05-23T02:17:36.477Z,15.77
2023-05-23T02:18:36.450Z,15.73
2023-05-23T02:19:36.575Z,15.62
2023-05-23T02:20:36.456Z,15.77
2023-05-23T02:21:36.430Z,15.75
2023-05-23T02:22:36.420Z,15.72
2023-05-23T02:23:36.416Z,15.68
2023-05-23T02:24:36.505Z,15.58
2023-05-23T02:25:36.394Z,15.54
2023-05-23T02:26:36.395Z,15.62
2023-05-23T02:27:36.389Z,15.62
2023-05-23T02:28:36.370Z,15.57
2023-05-23T02:29:36.358Z,15.58
2023-05-23T02:30:36.353Z,15.58
2023-05-23T02:31:36.387Z,15.67
2023-05-23T02:32:36.470Z,15.57
2023-05-23T02:33:36.346Z,15.64
2023-05-23T02:34:36.323Z,15.62
2023-05-23T02:35:36.298Z,15.72
2023-05-23T02:36:36.308Z,15.67
2023-05-23T02:37:36.293Z,15.72
2023-05-23T02:38:36.293Z,15.76
2023-05-23T02:39:36.269Z,15.80
2023-05-23T02:40:36.386Z,15.82
2023-05-23T02:41:36.289Z,15.80
2023-05-23T02:42:36.240Z,15.91
2023-05-23T02:43:36.251Z,15.86
2023-05-23T02:44:36.240Z,15.86
2023-05-23T02:45:36.227Z,15.92
2023-05-23T02:46:36.329Z,15.94
2023-05-23T02:47:36.258Z,16.01
2023-05-23T02:48:36.226Z,16.05
2023-05-23T02:49:36.189Z,16.00
2023-05-23T02:50:37.191Z,15.97
2023-05-23T02:51:36.175Z,16.01
2023-05-23T02:52:36.177Z,16.00
2023-05-23T02:53:36.184Z,16.01
2023-05-23T02:54:36.179Z,16.04
2023-05-23T02:55:36.166Z,16.10
2023-05-23T02:56:36.242Z,16.10
2023-05-23T02:57:36.135Z,16.10
2023-05-23T02:58:36.169Z,15.98
2023-05-23T02:59:36.149Z,15.92
2023-05-23T03:00:36.114Z,15.98
2023-05-23T03:01:36.123Z,15.94
2023-05-23T03:02:36.138Z,15.91
2023-05-23T03:03:36.161Z,15.92
2023-05-23T03:04:36.072Z,15.92
2023-05-23T03:05:36.067Z,15.98
2023-05-23T03:06:36.063Z,15.82
2023-05-23T03:07:36.057Z,15.83
2023-05-23T03:08:36.041Z,15.82
2023-05-23T03:09:36.062Z,15.79
2023-05-23T03:10:36.050Z,15.80
2023-05-23T03:11:36.071Z,15.82
2023-05-23T03:12:36.119Z,15.92
2023-05-23T03:13:36.003Z,15.82
2023-05-23T03:14:35.985Z,15.75
2023-05-23T03:15:36.002Z,15.67
2023-05-23T03:16:36.065Z,15.73
2023-05-23T03:17:36.008Z,15.67
2023-05-23T03:18:35.994Z,15.72
2023-05-23T03:19:36.690Z,15.70
2023-05-23T03:20:36.945Z,15.67
2023-05-23T03:21:35.942Z,15.65
2023-05-23T03:22:35.937Z,15.70
2023-05-23T03:23:35.927Z,15.64
2023-05-23T03:24:36.757Z,15.46
2023-05-23T03:25:35.912Z,15.51
2023-05-23T03:26:35.904Z,15.58
2023-05-23T03:27:35.882Z,15.54
2023-05-23T03:28:35.996Z,15.51
2023-05-23T03:29:35.880Z,15.47
2023-05-23T03:30:35.855Z,15.47
2023-05-23T03:31:36.890Z,15.43
2023-05-23T03:32:35.884Z,15.40
2023-05-23T03:33:38.239Z,15.49
2023-05-23T03:34:37.180Z,15.39
2023-05-23T03:35:35.817Z,15.43
2023-05-23T03:36:36.752Z,15.44
2023-05-23T03:37:35.806Z,15.43
2023-05-23T03:38:35.798Z,15.42
2023-05-23T03:39:36.413Z,15.51
2023-05-23T03:40:37.191Z,15.51
2023-05-23T03:41:35.791Z,15.51
2023-05-23T03:42:35.767Z,15.67
2023-05-23T03:43:35.766Z,15.68
2023-05-23T03:44:36.814Z,15.68
2023-05-23T03:45:42.985Z,15.67
2023-05-23T03:46:39.676Z,15.70
2023-05-23T03:47:36.683Z,15.73
2023-05-23T03:48:35.769Z,15.72
2023-05-23T03:49:35.812Z,15.72
2023-05-23T03:50:36.694Z,15.72
2023-05-23T03:51:35.777Z,15.79
2023-05-23T03:52:35.710Z,15.72
2023-05-23T03:53:36.701Z,15.73
2023-05-23T03:54:36.721Z,15.80
2023-05-23T03:55:35.673Z,15.82
2023-05-23T03:56:35.676Z,15.82
2023-05-23T03:57:36.270Z,15.94
2023-05-23T03:58:35.656Z,15.91
2023-05-23T03:59:35.659Z,15.88
2023-05-23T04:00:35.745Z,15.88
2023-05-23T04:01:35.634Z,15.80
2023-05-23T04:02:35.649Z,16.04
2023-05-23T04:03:35.903Z,15.92
2023-05-23T04:04:35.672Z,16.12
2023-05-23T04:05:35.608Z,16.02
2023-05-23T04:06:35.598Z,16.15
2023-05-23T04:07:35.573Z,16.13
2023-05-23T04:08:35.608Z,16.17
2023-05-23T04:09:35.547Z,16.20
2023-05-23T04:10:35.561Z,16.10
2023-05-23T04:11:35.553Z,16.38
2023-05-23T04:12:35.536Z,16.20
2023-05-23T04:13:35.610Z,16.31
2023-05-23T04:14:35.533Z,16.29
2023-05-23T04:15:35.522Z,16.33
2023-05-23T04:16:35.687Z,16.39
2023-05-23T04:17:35.532Z,16.42
2023-05-23T04:18:35.505Z,16.43
2023-05-23T04:19:35.560Z,16.42
2023-05-23T04:20:36.191Z,16.38
2023-05-23T04:21:35.473Z,16.53
2023-05-23T04:22:35.464Z,16.58
2023-05-23T04:23:35.458Z,16.57
2023-05-23T04:24:35.451Z,16.68
2023-05-23T04:25:35.443Z,16.49
2023-05-23T04:26:35.435Z,16.58
2023-05-23T04:27:35.977Z,16.47
2023-05-23T04:28:35.429Z,16.60
2023-05-23T04:29:35.404Z,16.65
2023-05-23T04:30:35.392Z,16.65
2023-05-23T04:31:35.498Z,16.71
2023-05-23T04:32:35.528Z,16.72
2023-05-23T04:33:35.382Z,16.75
2023-05-23T04:34:35.384Z,16.78
2023-05-23T04:35:35.363Z,16.83
2023-05-23T04:36:35.360Z,16.86
2023-05-23T04:37:35.345Z,16.93
2023-05-23T04:38:35.349Z,16.89
2023-05-23T04:39:35.332Z,16.93
2023-05-23T04:40:35.322Z,16.94
2023-05-23T04:41:36.360Z,17.02
2023-05-23T04:42:35.314Z,17.09
2023-05-23T04:43:35.305Z,17.06
2023-05-23T04:44:35.303Z,17.11
2023-05-23T04:45:35.284Z,17.08
2023-05-23T04:46:35.299Z,17.08
2023-05-23T04:47:37.294Z,17.15
2023-05-23T04:48:36.402Z,17.15
2023-05-23T04:49:35.245Z,17.15
2023-05-23T04:50:35.240Z,17.20
2023-05-23T04:51:35.225Z,17.24
2023-05-23T04:52:35.228Z,17.20
2023-05-23T04:53:35.224Z,17.24
2023-05-23T04:54:35.208Z,17.22
2023-05-23T04:55:35.202Z,17.24
2023-05-23T04:56:35.200Z,17.29
2023-05-23T04:57:35.188Z,17.16
2023-05-23T04:58:35.192Z,17.14
2023-05-23T04:59:35.233Z,17.12
2023-05-23T05:00:35.204Z,17.15
2023-05-23T05:01:35.227Z,17.09
2023-05-23T05:02:35.186Z,17.09
2023-05-23T05:03:35.152Z,17.06
2023-05-23T05:04:35.749Z,17.09
2023-05-23T05:05:35.126Z,16.97
2023-05-23T05:06:35.158Z,16.99
2023-05-23T05:07:35.147Z,17.05
2023-05-23T05:08:35.095Z,17.05
2023-05-23T05:09:35.117Z,16.99
2023-05-23T05:10:35.720Z,17.01
2023-05-23T05:11:35.110Z,17.05
2023-05-23T05:12:35.056Z,16.93
2023-05-23T05:13:36.730Z,16.91
2023-05-23T05:14:35.063Z,16.96
2023-05-23T05:15:35.111Z,16.83
2023-05-23T05:16:35.055Z,16.90
2023-05-23T05:17:35.033Z,16.89
2023-05-23T05:18:35.027Z,16.90
2023-05-23T05:19:35.076Z,16.81
2023-05-23T05:20:35.122Z,16.90
2023-05-23T05:21:34.979Z,16.93
2023-05-23T05:22:34.988Z,16.87
2023-05-23T05:23:34.981Z,16.83
2023-05-23T05:24:34.958Z,16.87
2023-05-23T05:25:34.962Z,16.83
2023-05-23T05:26:34.947Z,16.79
2023-05-23T05:27:34.948Z,16.74
2023-05-23T05:28:34.928Z,16.71
2023-05-23T05:29:34.928Z,16.72
2023-05-23T05:30:35.719Z,16.81
2023-05-23T05:31:35.008Z,16.74
2023-05-23T05:32:34.948Z,16.69
2023-05-23T05:33:34.890Z,16.71
2023-05-23T05:34:34.891Z,16.60
2023-05-23T05:35:34.890Z,16.50
2023-05-23T05:36:34.977Z,16.39
2023-05-23T05:37:35.795Z,16.46
2023-05-23T05:38:34.902Z,16.50
2023-05-23T05:39:34.846Z,16.39
2023-05-23T05:40:34.847Z,16.43
2023-05-23T05:41:34.835Z,16.46
2023-05-23T05:42:34.813Z,16.38
2023-05-23T05:43:35.737Z,16.42
2023-05-23T05:44:34.804Z,16.42
2023-05-23T05:45:36.741Z,16.49
2023-05-23T05:46:34.825Z,16.42
2023-05-23T05:47:34.852Z,16.42
2023-05-23T05:48:34.899Z,16.36
2023-05-23T05:49:34.761Z,16.50
2023-05-23T05:50:34.775Z,16.57
2023-05-23T05:51:34.748Z,16.57
2023-05-23T05:52:34.853Z,16.60
2023-05-23T05:53:34.768Z,16.65
2023-05-23T05:54:34.725Z,16.68
2023-05-23T05:55:34.721Z,16.61
2023-05-23T05:56:34.720Z,16.56
2023-05-23T05:57:36.241Z,16.58
2023-05-23T05:58:34.696Z,16.64
2023-05-23T05:59:35.245Z,16.66
2023-05-23T06:00:34.774Z,16.69
2023-05-23T06:01:34.677Z,16.69
2023-05-23T06:02:34.773Z,16.69
2023-05-23T06:03:34.818Z,16.86
2023-05-23T06:04:34.732Z,16.78
2023-05-23T06:06:41.452Z,16.87
2023-05-23T06:07:41.463Z,17.04
2023-05-23T06:08:41.521Z,17.02
2023-05-23T06:09:41.474Z,17.14
2023-05-23T06:10:41.647Z,17.20
2023-05-23T06:11:43.317Z,17.20
2023-05-23T06:12:41.529Z,17.23
2023-05-23T06:13:41.405Z,17.54
2023-05-23T06:14:41.451Z,18.13
2023-05-23T06:15:41.469Z,19.11
2023-05-23T06:16:41.479Z,19.99
2023-05-23T06:17:42.382Z,20.66
2023-05-23T06:18:41.396Z,20.72
2023-05-23T06:19:41.401Z,20.74
2023-05-23T06:20:48.818Z,20.90
2023-05-23T06:21:41.319Z,20.92
2023-05-23T06:22:41.319Z,20.85
2023-05-23T06:23:41.414Z,21.07
2023-05-23T06:24:41.299Z,21.02
2023-05-23T06:25:41.327Z,21.21
2023-05-23T06:26:41.285Z,21.20
2023-05-23T06:27:41.285Z,21.52
2023-05-23T06:28:42.357Z,21.67
2023-05-23T06:29:42.354Z,21.66
2023-05-23T06:30:42.605Z,21.43
2023-05-23T06:31:42.362Z,21.18
2023-05-23T06:32:42.407Z,21.37
2023-05-23T06:33:42.323Z,21.20
2023-05-23T06:34:42.327Z,20.28
2023-05-23T06:35:42.836Z,19.88
2023-05-23T06:36:42.302Z,19.82
2023-05-23T06:37:42.319Z,19.64
2023-05-23T06:38:42.312Z,19.62
2023-05-23T06:39:42.323Z,19.70
2023-05-23T06:40:42.481Z,19.67
2023-05-23T06:41:42.262Z,19.56
2023-05-23T06:42:42.249Z,19.67
2023-05-23T06:43:42.267Z,19.49
2023-05-23T06:44:42.235Z,19.54
2023-05-23T06:45:42.847Z,19.16
2023-05-23T06:46:42.226Z,18.93
2023-05-23T06:47:42.263Z,18.90
2023-05-23T06:48:42.201Z,18.73
2023-05-23T06:49:42.218Z,18.65
2023-05-23T06:50:42.571Z,18.53
2023-05-23T06:51:42.314Z,18.40
2023-05-23T06:52:42.199Z,18.37
2023-05-23T06:53:42.156Z,18.16
2023-05-23T06:54:42.157Z,18.01
2023-05-23T06:55:42.257Z,18.05
2023-05-23T06:56:42.148Z,18.04
2023-05-23T06:57:42.177Z,18.04
2023-05-23T06:59:49.258Z,18.01
2023-05-23T07:00:50.177Z,17.90
2023-05-23T07:01:51.115Z,17.92
2023-05-23T07:02:50.475Z,18.03
2023-05-23T07:03:50.354Z,18.04
2023-05-23T07:04:50.324Z,18.08
2023-05-23T07:05:52.231Z,18.16
2023-05-23T07:06:51.154Z,17.85
2023-05-23T07:07:50.296Z,17.71
2023-05-23T07:08:50.301Z,17.71
2023-05-23T07:09:51.125Z,17.78
2023-05-23T07:10:50.377Z,17.74
2023-05-23T07:11:50.291Z,17.74
2023-05-23T07:12:50.247Z,17.64
2023-05-23T07:13:50.277Z,17.57
2023-05-23T07:14:53.629Z,17.71
2023-05-23T07:15:50.262Z,17.74
2023-05-23T07:17:57.067Z,17.80
2023-05-23T07:18:57.077Z,17.90
2023-05-23T07:19:58.165Z,17.98
2023-05-23T07:20:58.137Z,17.94
2023-05-23T07:21:58.137Z,18.05
2023-05-23T07:22:58.142Z,17.87
2023-05-23T07:23:58.117Z,17.72
2023-05-23T07:24:58.133Z,17.78
2023-05-23T07:26:02.371Z,17.67
2023-05-23T07:27:00.110Z,17.63
2023-05-23T07:27:58.119Z,17.57
2023-05-23T07:28:59.010Z,17.65
2023-05-23T07:29:58.107Z,17.70
2023-05-23T07:30:58.124Z,17.82
2023-05-23T07:31:58.060Z,17.72
2023-05-23T07:32:58.088Z,17.89
2023-05-23T07:33:58.497Z,18.01
2023-05-23T07:34:58.070Z,18.08
2023-05-23T07:35:58.021Z,18.08
2023-05-23T07:36:58.019Z,18.23
2023-05-23T07:37:58.020Z,18.11
2023-05-23T07:38:58.008Z,17.82
2023-05-23T07:39:58.005Z,17.56
2023-05-23T07:41:07.395Z,17.44
2023-05-23T07:41:59.971Z,17.46
2023-05-23T07:42:57.961Z,17.45
2023-05-23T07:43:58.023Z,17.41
2023-05-23T07:44:57.986Z,17.51
2023-05-23T07:45:57.950Z,17.54
2023-05-23T07:46:57.996Z,17.64
2023-05-23T07:47:58.031Z,17.78
2023-05-23T07:48:57.913Z,17.71
2023-05-23T07:49:57.922Z,17.80
2023-05-23T07:50:57.917Z,17.67
2023-05-23T07:51:57.889Z,17.63
2023-05-23T07:52:57.886Z,17.68
2023-05-23T07:53:57.879Z,17.90
2023-05-23T07:54:57.867Z,18.10
2023-05-23T07:55:57.857Z,18.26
2023-05-23T07:56:57.848Z,18.37
2023-05-23T07:57:57.868Z,18.50
2023-05-23T07:58:57.837Z,18.70
2023-05-23T07:59:57.856Z,18.63
2023-05-23T08:00:57.819Z,18.70
2023-05-23T08:01:57.903Z,18.77
2023-05-23T08:02:57.814Z,18.73
2023-05-23T08:03:57.824Z,18.75
2023-05-23T08:04:57.784Z,18.78
2023-05-23T08:05:57.768Z,18.84
2023-05-23T08:07:04.893Z,18.78
2023-05-23T08:07:59.778Z,18.81
2023-05-23T08:08:57.752Z,18.88
2023-05-23T08:09:57.792Z,18.93
2023-05-23T08:10:57.748Z,19.04
2023-05-23T08:11:57.810Z,18.88
2023-05-23T08:12:57.716Z,18.60
2023-05-23T08:13:59.427Z,18.22
2023-05-23T08:14:57.702Z,18.10
2023-05-23T08:15:57.730Z,17.90
2023-05-23T08:16:57.764Z,17.82
2023-05-23T08:17:57.741Z,17.57
2023-05-23T08:18:57.709Z,17.54
2023-05-23T08:19:57.714Z,17.70
2023-05-23T08:20:57.654Z,17.67
2023-05-23T08:21:57.785Z,17.85
2023-05-23T08:22:57.690Z,17.92
2023-05-23T08:23:57.638Z,18.01
2023-05-23T08:24:57.638Z,17.97
2023-05-23T08:25:57.645Z,17.94
2023-05-23T08:26:57.610Z,18.05
2023-05-23T08:27:57.605Z,17.94
2023-05-23T08:28:57.589Z,18.13
2023-05-23T08:29:57.596Z,18.08
2023-05-23T08:30:57.582Z,18.05
2023-05-23T08:31:57.589Z,18.04
2023-05-23T08:32:57.619Z,18.18
2023-05-23T08:33:57.562Z,18.07
2023-05-23T08:34:57.566Z,18.11
2023-05-23T08:35:58.460Z,17.97
2023-05-23T08:36:57.551Z,17.97
2023-05-23T08:37:57.551Z,17.97
2023-05-23T08:38:57.538Z,17.87
2023-05-23T08:39:58.029Z,17.94
2023-05-23T08:40:57.503Z,18.01
2023-05-23T08:41:57.495Z,17.83
2023-05-23T08:42:58.073Z,17.80
2023-05-23T08:43:58.084Z,17.85
2023-05-23T08:44:57.480Z,17.98
2023-05-23T08:45:58.581Z,18.00
2023-05-23T08:46:57.449Z,18.05
2023-05-23T08:47:57.462Z,18.15
2023-05-23T08:48:57.443Z,18.08
2023-05-23T08:49:57.434Z,18.15
2023-05-23T08:50:57.438Z,18.13
2023-05-23T08:51:57.493Z,18.11
2023-05-23T08:52:57.428Z,18.04
2023-05-23T08:53:57.402Z,17.98
2023-05-23T08:54:57.409Z,17.94
2023-05-23T08:55:57.385Z,17.85
2023-05-23T08:56:57.386Z,17.74
2023-05-23T08:57:57.365Z,17.63
2023-05-23T08:58:57.363Z,17.49
2023-05-23T08:59:57.388Z,17.49
2023-05-23T09:00:57.373Z,17.60
2023-05-23T09:01:58.144Z,17.59
2023-05-23T09:02:57.476Z,17.46
2023-05-23T09:03:57.319Z,17.52
2023-05-23T09:04:57.364Z,17.56
2023-05-23T09:05:57.444Z,17.45
2023-05-23T09:06:57.315Z,17.45
2023-05-23T09:07:57.303Z,17.36
2023-05-23T09:08:57.294Z,17.49
2023-05-23T09:09:57.293Z,17.48
2023-05-23T09:10:57.263Z,17.48
2023-05-23T09:11:57.264Z,17.49
2023-05-23T09:12:57.262Z,17.49
2023-05-23T09:13:57.261Z,17.31
2023-05-23T09:14:57.237Z,17.27
2023-05-23T09:15:57.276Z,17.45
2023-05-23T09:16:57.242Z,17.45
2023-05-23T09:17:57.320Z,17.54
2023-05-23T09:18:57.310Z,17.57
2023-05-23T09:19:57.214Z,17.60
2023-05-23T09:20:57.200Z,17.63
2023-05-23T09:21:57.225Z,17.72
2023-05-23T09:22:57.242Z,17.70
2023-05-23T09:23:57.173Z,17.63
2023-05-23T09:24:57.172Z,17.78
2023-05-23T09:25:57.967Z,17.85
2023-05-23T09:26:57.179Z,17.80
2023-05-23T09:27:57.141Z,17.76
2023-05-23T09:28:57.150Z,17.63
2023-05-23T09:29:57.139Z,17.70
2023-05-23T09:30:57.153Z,17.72
2023-05-23T09:31:57.313Z,17.67
2023-05-23T09:33:00.196Z,17.70
2023-05-23T09:33:57.105Z,17.67
2023-05-23T09:36:04.446Z,17.63
2023-05-23T09:37:05.300Z,17.68
2023-05-23T09:38:04.450Z,17.57
2023-05-23T09:39:04.428Z,17.86
2023-05-23T09:40:04.475Z,17.74
2023-05-23T09:41:04.422Z,17.68
2023-05-23T09:42:04.413Z,17.65
2023-05-23T09:43:04.412Z,17.59
2023-05-23T09:44:04.392Z,17.57
2023-05-23T09:45:05.113Z,17.65
2023-05-23T09:46:04.379Z,17.74
2023-05-23T09:47:05.515Z,17.71
2023-05-23T09:48:05.487Z,17.71
2023-05-23T09:49:05.465Z,17.59
2023-05-23T09:50:05.432Z,17.60
2023-05-23T09:51:05.439Z,17.51
2023-05-23T09:52:05.428Z,17.54
2023-05-23T09:53:05.444Z,17.54
2023-05-23T09:54:06.405Z,17.46
2023-05-23T09:55:05.391Z,17.57
2023-05-23T09:56:05.426Z,17.51
2023-05-23T09:57:06.033Z,17.29
2023-05-23T09:58:05.373Z,17.42
2023-05-23T09:59:05.353Z,17.44
2023-05-23T10:00:06.379Z,17.36
2023-05-23T10:01:05.393Z,17.33
2023-05-23T10:02:05.354Z,17.27
2023-05-23T10:03:05.392Z,17.38
2023-05-23T10:04:05.403Z,17.39
2023-05-23T10:05:06.866Z,17.22
2023-05-23T10:06:05.310Z,17.23
2023-05-23T10:07:05.307Z,17.29
2023-05-23T10:08:05.331Z,17.29
2023-05-23T10:09:05.341Z,17.41
2023-05-23T10:10:05.287Z,17.36
2023-05-23T10:11:05.281Z,17.44
2023-05-23T10:12:05.268Z,17.59
2023-05-23T10:13:05.248Z,17.52
2023-05-23T10:14:05.254Z,17.59
2023-05-23T10:15:05.245Z,17.60
2023-05-23T10:16:05.837Z,17.57
2023-05-23T10:17:05.266Z,17.57
2023-05-23T10:18:05.224Z,17.80
2023-05-23T10:19:05.237Z,17.82
2023-05-23T10:20:05.822Z,17.78
2023-05-23T10:21:05.184Z,17.94
2023-05-23T10:22:05.203Z,18.00
2023-05-23T10:23:05.194Z,18.07
2023-05-23T10:24:05.355Z,18.15
2023-05-23T10:25:05.213Z,18.15
2023-05-23T10:26:05.220Z,18.10
2023-05-23T10:27:05.155Z,17.97
2023-05-23T10:28:05.215Z,17.94
2023-05-23T10:29:05.134Z,17.95
2023-05-23T10:30:05.118Z,17.87
2023-05-23T10:31:06.162Z,17.70
2023-05-23T10:32:05.103Z,17.60
2023-05-23T10:33:06.163Z,17.54
2023-05-23T10:34:05.105Z,17.57
2023-05-23T10:35:05.079Z,17.41
2023-05-23T10:36:05.115Z,17.34
2023-05-23T10:37:05.066Z,17.29
2023-05-23T10:38:05.047Z,17.30
2023-05-23T10:39:05.047Z,17.39
2023-05-23T10:40:05.055Z,17.39
2023-05-23T10:41:05.049Z,17.15
2023-05-23T10:42:05.095Z,16.91
2023-05-23T10:43:05.003Z,16.87
2023-05-23T10:44:05.056Z,16.84
2023-05-23T10:45:04.985Z,16.65
2023-05-23T10:46:05.141Z,16.57
2023-05-23T10:47:05.054Z,16.46
2023-05-23T10:48:05.020Z,16.21
2023-05-23T10:49:04.964Z,16.31
2023-05-23T10:50:04.979Z,16.28
2023-05-23T10:51:05.827Z,16.33
2023-05-23T10:52:04.934Z,16.32
2023-05-23T10:53:04.941Z,16.38
2023-05-23T10:54:04.923Z,16.04
2023-05-23T10:55:04.918Z,15.88
2023-05-23T10:56:05.436Z,15.80
2023-05-23T10:57:04.964Z,15.70
2023-05-23T10:58:04.900Z,15.90
2023-05-23T10:59:04.899Z,15.94
2023-05-23T11:00:04.873Z,16.08
2023-05-23T11:01:04.909Z,16.24
2023-05-23T11:02:04.874Z,16.46
2023-05-23T11:03:04.955Z,16.42
2023-05-23T11:04:04.901Z,16.51
2023-05-23T11:05:04.837Z,16.41
2023-05-23T11:06:04.854Z,16.51
2023-05-23T11:07:05.823Z,16.23
2023-05-23T11:08:04.839Z,16.32
2023-05-23T11:09:07.045Z,16.13
2023-05-23T11:10:05.820Z,16.24
2023-05-23T11:11:06.322Z,16.17
2023-05-23T11:12:04.823Z,16.23
2023-05-23T11:13:04.764Z,15.92
2023-05-23T11:14:04.849Z,15.86
2023-05-23T11:15:04.747Z,15.97
2023-05-23T11:16:04.941Z,16.12
2023-05-23T11:17:04.820Z,16.28
2023-05-23T11:18:04.768Z,16.32
2023-05-23T11:19:04.765Z,16.35
2023-05-23T11:20:04.719Z,16.35
2023-05-23T11:21:04.724Z,16.42
2023-05-23T11:22:06.429Z,16.49
2023-05-23T11:23:05.690Z,16.64
2023-05-23T11:24:07.367Z,16.74
2023-05-23T11:25:04.689Z,16.87
2023-05-23T11:26:04.675Z,16.96
2023-05-23T11:27:04.664Z,16.96
2023-05-23T11:28:04.655Z,16.79
2023-05-23T11:29:04.653Z,16.47
2023-05-23T11:30:04.647Z,16.29
2023-05-23T11:31:04.626Z,16.31
2023-05-23T11:32:05.059Z,16.47
2023-05-23T11:33:04.656Z,16.54
2023-05-23T11:34:04.600Z,16.54
2023-05-23T11:35:05.428Z,16.68
2023-05-23T11:36:04.621Z,16.65
2023-05-23T11:37:04.582Z,16.56
2023-05-23T11:38:04.572Z,16.68
2023-05-23T11:39:04.580Z,16.71
2023-05-23T11:40:04.582Z,16.69
2023-05-23T11:41:04.572Z,16.60
2023-05-23T11:42:04.579Z,16.60
2023-05-23T11:43:07.894Z,16.66
2023-05-23T11:44:38.877Z,16.83
2023-05-23T11:45:04.533Z,16.93
2023-05-23T11:46:04.560Z,16.91
2023-05-23T11:47:04.512Z,16.75
2023-05-23T11:48:04.540Z,16.60
2023-05-23T11:49:04.523Z,16.64
2023-05-23T11:50:04.482Z,16.72
2023-05-23T11:51:04.487Z,16.66
2023-05-23T11:52:04.506Z,16.58
2023-05-23T11:53:04.567Z,16.53
2023-05-23T11:54:04.457Z,16.50
2023-05-23T11:55:04.455Z,16.60
2023-05-23T11:56:05.387Z,16.79
2023-05-23T11:57:05.428Z,16.89
2023-05-23T11:58:06.379Z,17.08
2023-05-23T11:59:04.405Z,17.11
2023-05-23T12:00:08.401Z,17.12
2023-05-23T12:01:05.382Z,17.20
2023-05-23T12:02:04.435Z,17.34
2023-05-23T12:03:04.410Z,17.26
2023-05-23T12:04:04.526Z,17.16
2023-05-23T12:05:04.954Z,17.15
2023-05-23T12:06:04.381Z,17.04
2023-05-23T12:07:04.401Z,17.12
2023-05-23T12:08:04.390Z,16.96
2023-05-23T12:09:04.341Z,16.87
2023-05-23T12:10:04.325Z,16.79
2023-05-23T12:11:04.324Z,16.71
2023-05-23T12:12:04.964Z,16.60
2023-05-23T12:13:05.893Z,16.69
2023-05-23T12:14:04.309Z,16.53
2023-05-23T12:15:04.313Z,16.64
2023-05-23T12:16:05.165Z,16.50
2023-05-23T12:17:04.264Z,16.65
2023-05-23T12:18:05.283Z,16.64
2023-05-23T12:19:04.293Z,16.66
2023-05-23T12:20:04.262Z,16.69
2023-05-23T12:21:04.226Z,16.66
2023-05-23T12:22:04.245Z,16.42
2023-05-23T12:23:04.223Z,16.21
2023-05-23T12:24:04.218Z,16.01
2023-05-23T12:25:04.224Z,16.09
2023-05-23T12:26:04.195Z,16.00
2023-05-23T12:28:11.074Z,15.92
2023-05-23T12:29:11.066Z,15.82
2023-05-23T12:30:12.153Z,15.86
2023-05-23T12:31:12.278Z,15.90
2023-05-23T12:32:12.914Z,15.73
2023-05-23T12:33:12.114Z,15.91
2023-05-23T12:34:12.130Z,15.84
2023-05-23T12:35:12.132Z,15.83
2023-05-23T12:36:12.116Z,15.79
2023-05-23T12:38:14.163Z,16.08
2023-05-23T12:39:12.074Z,15.97
2023-05-23T12:40:12.061Z,15.90
2023-05-23T12:41:12.067Z,15.91
2023-05-23T12:42:12.040Z,16.02
2023-05-23T12:43:12.038Z,16.20
2023-05-23T12:44:12.070Z,16.02
2023-05-23T12:45:12.020Z,15.90
2023-05-23T12:46:12.025Z,15.86
2023-05-23T12:47:12.202Z,15.84
2023-05-23T12:48:12.028Z,15.65
2023-05-23T12:49:12.024Z,15.65
2023-05-23T12:50:11.978Z,15.77
2023-05-23T12:51:11.991Z,15.67
2023-05-23T12:52:11.968Z,15.44
2023-05-23T12:53:11.967Z,15.29
2023-05-23T12:54:11.953Z,15.33
2023-05-23T12:55:11.963Z,15.33
2023-05-23T12:56:11.951Z,15.14
2023-05-23T12:57:11.929Z,15.06
2023-05-23T12:58:11.924Z,15.02
2023-05-23T12:59:12.944Z,15.00
2023-05-23T13:00:11.917Z,15.17